Time;durP1;ratioP1;P1;durP2;ratioP2;P2;SDS_P1;SDS_P2;PMS_P1;PMS_P2;Temp;Humidity;BMP_temperature;BMP_pressure;BME280_temperature;BME280_humidity;BME280_pressure;Samples;Min_cycle;Max_cycle;Signal;HPM_P1;HPM_P2
2022/02/28 00:01:22;;;;;;;13.95;8.05;;;-0.90;99.90;;;;;;5019138;28;20094;-72
2022/02/28 00:03:57;;;;;;;15.00;9.02;;;-1.00;99.90;;;;;;5034173;28;20252;-72
2022/02/28 00:06:24;;;;;;;15.48;8.77;;;-1.00;99.90;;;;;;5034754;28;20079;-72
2022/02/28 00:08:51;;;;;;;14.73;9.52;;;-1.00;99.90;;;;;;5018128;28;20147;-72
2022/02/28 00:11:18;;;;;;;11.63;7.72;;;-1.10;99.90;;;;;;5034932;28;20128;-73
2022/02/28 00:13:50;;;;;;;11.95;7.60;;;-1.10;99.90;;;;;;5052083;28;20041;-72
2022/02/28 00:16:22;;;;;;;11.43;7.95;;;-1.10;99.90;;;;;;5034516;28;20076;-73
2022/02/28 00:18:48;;;;;;;12.48;7.97;;;-1.20;99.90;;;;;;5034190;28;20128;-72
2022/02/28 00:21:20;;;;;;;14.00;8.52;;;-1.20;99.90;;;;;;5034132;28;20124;-73
2022/02/28 00:23:47;;;;;;;18.00;9.00;;;-1.20;99.90;;;;;;5033381;28;20072;-72
2022/02/28 00:26:19;;;;;;;17.40;10.20;;;-1.20;99.90;;;;;;5034586;28;20047;-73
2022/02/28 00:28:46;;;;;;;19.13;11.50;;;-1.30;99.90;;;;;;5052523;28;20041;-73
2022/02/28 00:31:18;;;;;;;18.70;12.25;;;-1.30;99.90;;;;;;5035361;28;20047;-73
2022/02/28 00:33:45;;;;;;;17.45;9.95;;;-1.30;99.90;;;;;;5053976;28;20435;-73
2022/02/28 00:36:17;;;;;;;16.55;9.70;;;-1.30;99.90;;;;;;5048474;28;20135;-73
2022/02/28 00:38:49;;;;;;;19.35;10.77;;;-1.30;99.90;;;;;;5035273;28;20100;-73
2022/02/28 00:41:21;;;;;;;16.98;10.13;;;-1.40;99.90;;;;;;5048502;28;20445;-72
2022/02/28 00:43:53;;;;;;;15.32;9.77;;;-1.40;99.90;;;;;;5047994;28;20114;-73
2022/02/28 00:46:20;;;;;;;14.65;10.00;;;-1.40;99.90;;;;;;5053995;28;20036;-73
2022/02/28 00:48:47;;;;;;;21.45;11.05;;;-1.40;99.90;;;;;;5054169;28;20492;-73
2022/02/28 00:51:13;;;;;;;18.52;10.68;;;-1.40;99.90;;;;;;5037468;28;20102;-72
2022/02/28 00:53:45;;;;;;;17.65;9.77;;;-1.40;99.90;;;;;;5053834;28;20424;-73
2022/02/28 00:56:17;;;;;;;19.77;10.50;;;-1.40;99.90;;;;;;5055443;28;20052;-73
2022/02/28 00:58:49;;;;;;;16.85;10.15;;;-1.50;99.90;;;;;;5072073;28;20044;-72
2022/02/28 01:01:20;;;;;;;16.80;9.65;;;-1.50;99.90;;;;;;5054281;28;20048;-72
2022/02/28 01:03:52;;;;;;;13.73;8.98;;;-1.60;99.90;;;;;;5053746;28;20152;-73
2022/02/28 01:06:19;;;;;;;16.48;9.93;;;-1.60;99.90;;;;;;5037654;28;20459;-73
2022/02/28 01:08:51;;;;;;;15.65;8.90;;;-1.60;99.90;;;;;;5054234;28;20635;-72
2022/02/28 01:11:23;;;;;;;13.23;8.23;;;-1.60;99.90;;;;;;5038458;28;20418;-72
2022/02/28 01:13:50;;;;;;;15.35;9.25;;;-1.70;99.90;;;;;;5053919;28;20083;-73
2022/02/28 01:16:17;;;;;;;15.50;8.70;;;-1.70;99.90;;;;;;5070730;28;20536;-72
2022/02/28 01:18:43;;;;;;;15.63;9.65;;;-1.70;99.90;;;;;;5054258;28;20072;-72
2022/02/28 01:21:15;;;;;;;13.68;8.32;;;-1.70;99.90;;;;;;5038224;28;20068;-72
2022/02/28 01:23:42;;;;;;;13.93;8.65;;;-1.80;99.90;;;;;;5053355;28;20078;-72
2022/02/28 01:26:09;;;;;;;15.25;8.68;;;-1.80;99.90;;;;;;5037429;28;20040;-73
2022/02/28 01:28:36;;;;;;;14.88;8.43;;;-1.80;99.90;;;;;;5053763;28;20051;-72
2022/02/28 01:31:08;;;;;;;14.43;8.65;;;-1.80;99.90;;;;;;5053686;28;20068;-72
2022/02/28 01:33:40;;;;;;;16.27;8.77;;;-1.80;99.90;;;;;;5053342;28;20072;-73
2022/02/28 01:36:12;;;;;;;13.25;7.82;;;-1.80;99.90;;;;;;5071595;28;20044;-73
2022/02/28 01:38:43;;;;;;;12.93;8.15;;;-1.90;99.90;;;;;;5053718;28;20117;-72
2022/02/28 01:41:15;;;;;;;15.90;8.18;;;-1.90;99.90;;;;;;5037771;28;20119;-72
2022/02/28 01:43:47;;;;;;;14.88;8.70;;;-1.90;99.90;;;;;;5037508;28;20422;-72
2022/02/28 01:46:19;;;;;;;15.25;8.35;;;-1.90;99.90;;;;;;5053581;28;20063;-73
2022/02/28 01:48:51;;;;;;;14.88;8.55;;;-1.90;99.90;;;;;;5053563;28;20139;-72
2022/02/28 01:51:22;;;;;;;15.23;9.35;;;-1.90;99.90;;;;;;5053626;28;20076;-73
2022/02/28 01:53:49;;;;;;;16.33;8.68;;;-1.90;99.90;;;;;;5069954;28;20119;-73
2022/02/28 01:56:16;;;;;;;13.75;8.27;;;-2.00;99.90;;;;;;5071891;28;20070;-73
2022/02/28 01:58:44;;;;;;;14.30;9.63;;;-2.00;99.90;;;;;;5070221;28;20094;-73
2022/02/28 02:01:16;;;;;;;15.55;9.10;;;-2.00;99.90;;;;;;5052858;28;20048;-72
2022/02/28 02:03:42;;;;;;;13.80;8.45;;;-2.00;99.90;;;;;;5053293;28;20503;-73
2022/02/28 02:06:14;;;;;;;15.80;8.20;;;-2.10;99.90;;;;;;5056988;28;20090;-73
2022/02/28 02:08:42;;;;;;;14.73;8.65;;;-2.10;99.90;;;;;;5056856;28;20400;-73
2022/02/28 02:11:15;;;;;;;14.77;9.25;;;-2.10;99.90;;;;;;5041249;28;20072;-73
2022/02/28 02:13:48;;;;;;;15.13;8.52;;;-2.20;99.90;;;;;;5040820;28;20097;-72
2022/02/28 02:16:16;;;;;;;15.90;9.88;;;-2.20;99.90;;;;;;5040191;28;20063;-73
2022/02/28 02:18:47;;;;;;;14.40;9.20;;;-2.20;99.90;;;;;;5074643;28;20124;-72
2022/02/28 02:21:14;;;;;;;17.52;9.40;;;-2.20;99.90;;;;;;5056624;28;20040;-72
2022/02/28 02:23:42;;;;;;;14.73;9.63;;;-2.30;99.90;;;;;;5074332;28;20032;-73
2022/02/28 02:26:14;;;;;;;17.52;9.98;;;-2.20;99.90;;;;;;5056471;28;20411;-73
2022/02/28 02:28:46;;;;;;;18.50;10.50;;;-2.20;99.90;;;;;;5040682;28;20049;-73
2022/02/28 02:31:13;;;;;;;18.48;10.95;;;-2.20;99.90;;;;;;5074518;28;20079;-72
2022/02/28 02:33:46;;;;;;;18.50;11.20;;;-2.20;99.90;;;;;;5040469;28;20139;-73
2022/02/28 02:36:21;;;;;;;16.70;10.48;;;-2.10;99.90;;;;;;5056354;28;20451;-73
2022/02/28 02:38:50;;;;;;;15.90;10.50;;;-2.20;99.90;;;;;;5039683;28;20131;-72
2022/02/28 02:41:22;;;;;;;20.02;10.43;;;-2.10;99.90;;;;;;5056358;28;20044;-72
2022/02/28 02:43:54;;;;;;;16.67;11.00;;;-2.20;99.90;;;;;;5055705;28;20127;-72
2022/02/28 02:46:26;;;;;;;19.02;9.98;;;-2.20;99.90;;;;;;5040623;28;20045;-72
2022/02/28 02:49:17;;;;;;;23.38;12.25;;;-2.20;99.90;;;;;;5056149;28;20040;-73
2022/02/28 02:51:44;;;;;;;19.17;10.50;;;-2.20;99.90;;;;;;5056083;28;20568;-73
2022/02/28 02:54:18;;;;;;;15.20;9.73;;;-2.20;99.90;;;;;;5055875;28;20051;-72
2022/02/28 02:56:50;;;;;;;19.08;10.93;;;-2.30;99.90;;;;;;5055944;28;20048;-73
2022/02/28 02:59:22;;;;;;;17.98;10.15;;;-2.30;99.90;;;;;;5056030;28;20044;-72
2022/02/28 03:01:48;;;;;;;15.57;9.77;;;-2.30;99.90;;;;;;5055929;28;20045;-72
2022/02/28 03:04:20;;;;;;;16.50;10.10;;;-2.40;99.90;;;;;;5055363;28;20051;-73
2022/02/28 03:06:52;;;;;;;16.73;10.30;;;-2.40;99.90;;;;;;5056050;28;20048;-73
2022/02/28 03:09:19;;;;;;;15.18;9.40;;;-2.40;99.90;;;;;;5055722;28;20534;-73
2022/02/28 03:11:47;;;;;;;15.38;9.32;;;-2.50;99.90;;;;;;5072775;28;20392;-73
2022/02/28 03:14:19;;;;;;;17.42;8.75;;;-2.50;99.90;;;;;;5039327;28;20050;-73
2022/02/28 03:16:53;;;;;;;17.85;10.02;;;-2.50;99.90;;;;;;5054472;28;20051;-73
2022/02/28 03:19:24;;;;;;;18.27;10.23;;;-2.50;99.90;;;;;;5055480;28;20529;-73
2022/02/28 03:21:56;;;;;;;16.42;9.05;;;-2.50;99.90;;;;;;5039814;28;20072;-72
2022/02/28 03:24:31;;;;;;;17.15;9.30;;;-2.50;99.90;;;;;;5054947;28;20056;-73
2022/02/28 03:26:58;;;;;;;16.25;9.85;;;-2.50;99.90;;;;;;5055507;28;20131;-73
2022/02/28 03:29:31;;;;;;;17.58;9.93;;;-2.60;99.90;;;;;;5073325;28;20044;-73
2022/02/28 03:32:04;;;;;;;22.65;10.70;;;-2.60;99.90;;;;;;5055531;28;20044;-73
2022/02/28 03:34:36;;;;;;;18.98;9.85;;;-2.70;99.90;;;;;;5055055;28;20076;-73
2022/02/28 03:37:03;;;;;;;17.23;9.65;;;-2.70;99.90;;;;;;5038657;28;20579;-73
2022/02/28 03:39:30;;;;;;;13.88;8.95;;;-2.80;99.90;;;;;;5055397;28;20079;-73
2022/02/28 03:41:57;;;;;;;15.30;9.82;;;-2.80;99.90;;;;;;5055197;28;20055;-73
2022/02/28 03:44:29;;;;;;;16.20;9.80;;;-2.80;99.90;;;;;;5038980;28;20040;-73
2022/02/28 03:47:07;;;;;;;19.77;10.23;;;-2.80;99.90;;;;;;5055103;28;20529;-73
2022/02/28 03:49:57;;;;;;;17.13;10.05;;;-2.80;99.90;;;;;;5058771;28;20055;-73
2022/02/28 03:52:31;;;;;;;13.93;9.43;;;-2.80;99.90;;;;;;5054451;28;20072;-73
2022/02/28 03:55:08;;;;;;;15.73;9.95;;;-2.80;99.90;;;;;;5039627;28;20047;-73
2022/02/28 03:57:35;;;;;;;15.55;9.02;;;-2.80;99.90;;;;;;5038600;28;20559;-73
2022/02/28 04:00:06;;;;;;;16.60;9.88;;;-2.80;99.90;;;;;;5054915;28;20048;-73
2022/02/28 04:02:39;;;;;;;14.82;8.27;;;-2.80;99.90;;;;;;5072432;28;20052;-73
2022/02/28 04:05:12;;;;;;;15.93;9.43;;;-2.80;99.90;;;;;;5039033;28;20052;-73
2022/02/28 04:07:46;;;;;;;18.77;9.82;;;-2.80;99.90;;;;;;5054852;28;20548;-73
2022/02/28 04:10:18;;;;;;;15.27;8.70;;;-2.80;99.90;;;;;;5054674;28;20040;-72
2022/02/28 04:12:50;;;;;;;18.10;9.85;;;-2.90;99.90;;;;;;5054161;28;20458;-72
2022/02/28 04:15:22;;;;;;;16.00;8.43;;;-2.90;99.90;;;;;;5038838;28;20148;-73
2022/02/28 04:17:54;;;;;;;15.90;8.80;;;-3.00;99.90;;;;;;5035221;28;20052;-72
2022/02/28 04:20:47;;;;;;;15.48;9.05;;;-3.00;99.90;;;;;;5046509;28;20123;-73
2022/02/28 04:23:19;;;;;;;16.55;9.63;;;-3.00;99.90;;;;;;5050786;28;20488;-72
2022/02/28 04:25:51;;;;;;;18.05;9.05;;;-3.10;99.90;;;;;;5033331;28;20554;-72
2022/02/28 04:28:23;;;;;;;14.18;8.45;;;-3.10;99.90;;;;;;5040802;28;20033;-72
2022/02/28 04:30:50;;;;;;;14.52;8.35;;;-3.00;99.90;;;;;;5020415;28;20044;-72
2022/02/28 04:33:22;;;;;;;19.08;10.18;;;-3.10;99.90;;;;;;5038306;28;20037;-72
2022/02/28 04:35:49;;;;;;;17.33;9.98;;;-3.00;99.90;;;;;;5034203;28;20041;-73
2022/02/28 04:38:16;;;;;;;15.57;9.27;;;-3.00;99.90;;;;;;5033016;28;20087;-72
2022/02/28 04:40:43;;;;;;;13.18;8.38;;;-3.00;99.90;;;;;;5027782;28;20083;-73
2022/02/28 04:43:15;;;;;;;23.23;10.65;;;-2.60;99.90;;;;;;5048572;28;20044;-73
2022/02/28 04:45:46;;;;;;;15.25;9.18;;;-2.30;99.90;;;;;;5034552;28;20045;-73
2022/02/28 04:48:19;;;;;;;17.33;9.65;;;-2.20;99.90;;;;;;5034507;28;20033;-73
2022/02/28 04:50:55;;;;;;;17.48;9.90;;;-2.20;99.90;;;;;;5051614;28;20048;-72
2022/02/28 04:53:27;;;;;;;15.77;9.50;;;-2.20;99.90;;;;;;5031882;28;20045;-73
2022/02/28 04:56:05;;;;;;;17.90;10.77;;;-2.30;99.90;;;;;;5018635;28;20045;-73
2022/02/28 04:58:32;;;;;;;20.42;11.43;;;-2.40;99.90;;;;;;5017279;28;20118;-72
2022/02/28 05:01:15;;;;;;;34.05;16.55;;;-2.40;99.90;;;;;;5019713;28;20041;-73
2022/02/28 05:03:49;;;;;;;23.95;13.60;;;-2.50;99.90;;;;;;5018084;28;20045;-73
2022/02/28 05:06:16;;;;;;;24.35;13.27;;;-2.60;99.90;;;;;;5033956;28;20045;-73
2022/02/28 05:08:48;;;;;;;20.60;11.63;;;-2.70;99.90;;;;;;5033558;28;20045;-73
2022/02/28 05:11:16;;;;;;;20.77;10.70;;;-2.80;99.90;;;;;;5033651;28;20041;-73
2022/02/28 05:13:49;;;;;;;19.17;10.30;;;-3.00;99.90;;;;;;5017474;28;20040;-73
2022/02/28 05:16:16;;;;;;;19.45;11.98;;;-3.10;99.90;;;;;;5033516;28;20045;-72
2022/02/28 05:18:48;;;;;;;20.13;11.38;;;-3.20;99.90;;;;;;5033608;28;20047;-73
2022/02/28 05:21:20;;;;;;;19.65;11.85;;;-3.30;99.90;;;;;;5033391;28;20049;-73
2022/02/28 05:23:49;;;;;;;21.33;11.00;;;-3.30;99.90;;;;;;5033093;28;20132;-72
2022/02/28 05:26:22;;;;;;;19.88;11.82;;;-3.30;99.90;;;;;;5033437;28;20047;-73
2022/02/28 05:28:54;;;;;;;18.67;11.05;;;-3.30;99.90;;;;;;5017850;28;20052;-73
2022/02/28 05:31:25;;;;;;;18.95;11.27;;;-3.30;99.90;;;;;;5033232;28;20087;-72
2022/02/28 05:34:23;;;;;;;21.45;10.65;;;-3.40;99.90;;;;;;5051617;28;20045;-73
2022/02/28 05:36:51;;;;;;;20.50;12.07;;;-3.40;99.90;;;;;;5033843;28;20388;-73
2022/02/28 05:39:36;;;;;;;21.55;11.32;;;-3.40;99.90;;;;;;5032843;28;20041;-73
2022/02/28 05:42:14;;;;;;;19.95;11.88;;;-3.40;99.90;;;;;;5018690;28;20137;-73
2022/02/28 05:44:49;;;;;;;19.17;10.55;;;-3.40;99.90;;;;;;5018583;28;20567;-73
2022/02/28 05:47:16;;;;;;;20.75;11.38;;;-3.40;99.90;;;;;;5033693;28;20051;-73
2022/02/28 05:49:50;;;;;;;22.35;12.25;;;-3.50;99.90;;;;;;5018430;28;20415;-73
2022/02/28 05:52:17;;;;;;;21.88;11.20;;;-3.40;99.90;;;;;;5017311;28;20048;-73
2022/02/28 05:54:49;;;;;;;19.67;10.48;;;-3.50;99.90;;;;;;5034571;28;20051;-73
2022/02/28 05:57:16;;;;;;;21.98;12.20;;;-3.50;99.90;;;;;;5051306;28;20064;-72
2022/02/28 05:59:47;;;;;;;23.65;11.20;;;-3.50;99.90;;;;;;5051418;28;20087;-72
2022/02/28 06:02:14;;;;;;;24.33;11.95;;;-3.50;99.90;;;;;;5033660;28;20500;-73
2022/02/28 06:04:46;;;;;;;16.95;9.52;;;-3.50;99.90;;;;;;5017764;28;20072;-72
2022/02/28 06:07:13;;;;;;;22.20;11.10;;;-3.60;99.90;;;;;;5051394;28;20045;-72
2022/02/28 06:09:39;;;;;;;19.67;9.73;;;-3.60;99.90;;;;;;5017114;28;20536;-73
2022/02/28 06:12:08;;;;;;;19.83;10.35;;;-3.60;99.90;;;;;;5051207;28;20068;-73
2022/02/28 06:14:40;;;;;;;19.65;10.38;;;-3.60;99.90;;;;;;5051195;28;20496;-73
2022/02/28 06:17:11;;;;;;;19.33;10.35;;;-3.60;99.90;;;;;;5034321;28;20083;-73
2022/02/28 06:19:40;;;;;;;20.88;10.07;;;-3.60;99.90;;;;;;5033205;28;20045;-72
2022/02/28 06:22:07;;;;;;;17.73;9.32;;;-3.60;99.90;;;;;;5050249;28;20454;-73
2022/02/28 06:24:38;;;;;;;18.02;8.80;;;-3.60;99.90;;;;;;5050752;28;20504;-73
2022/02/28 06:27:10;;;;;;;17.35;9.25;;;-3.60;99.90;;;;;;5020346;28;20041;-73
2022/02/28 06:29:43;;;;;;;17.35;9.70;;;-3.60;99.90;;;;;;5047180;28;20076;-72
2022/02/28 06:32:15;;;;;;;17.48;9.95;;;-3.60;99.90;;;;;;5043569;28;20045;-73
2022/02/28 06:34:43;;;;;;;14.07;8.88;;;-3.50;99.90;;;;;;5037741;28;20080;-73
2022/02/28 06:37:15;;;;;;;12.73;8.07;;;-3.60;99.90;;;;;;5031616;28;20055;-73
2022/02/28 06:39:46;;;;;;;14.02;8.43;;;-3.50;99.90;;;;;;5036828;28;20299;-73
2022/02/28 06:42:18;;;;;;;17.60;10.10;;;-3.50;99.90;;;;;;5035963;28;20046;-72
2022/02/28 06:44:45;;;;;;;16.13;9.45;;;-3.50;99.90;;;;;;5044652;28;20087;-73
2022/02/28 06:47:11;;;;;;;13.65;8.55;;;-3.50;99.90;;;;;;5043582;28;20075;-72
2022/02/28 06:49:43;;;;;;;14.95;9.95;;;-3.50;99.90;;;;;;5055498;28;20043;-71
2022/02/28 06:52:16;;;;;;;21.08;9.38;;;-3.50;99.90;;;;;;5070608;28;20555;-73
2022/02/28 06:54:42;;;;;;;18.88;10.93;;;-3.40;99.90;;;;;;5060983;28;20068;-73
2022/02/28 06:57:14;;;;;;;20.45;10.00;;;-3.40;99.90;;;;;;5062689;28;20055;-72
2022/02/28 06:59:46;;;;;;;18.67;10.35;;;-3.40;99.90;;;;;;5035846;28;20139;-73
2022/02/28 07:02:18;;;;;;;23.85;11.48;;;-3.40;99.90;;;;;;5023116;28;20037;-73
2022/02/28 07:05:04;;;;;;;19.90;10.38;;;-3.40;99.90;;;;;;5063996;28;20072;-74
2022/02/28 07:07:31;;;;;;;19.77;11.52;;;-3.30;99.90;;;;;;5035852;28;20144;-74
2022/02/28 07:09:59;;;;;;;27.60;12.15;;;-3.30;99.90;;;;;;5053125;28;20041;-73
2022/02/28 07:12:31;;;;;;;20.27;10.93;;;-3.30;99.90;;;;;;5068137;28;20373;-73
2022/02/28 07:15:03;;;;;;;22.58;13.73;;;-3.20;99.90;;;;;;5042082;28;20045;-73
2022/02/28 07:17:30;;;;;;;29.17;12.48;;;-3.20;99.90;;;;;;5067156;28;20079;-72
2022/02/28 07:19:57;;;;;;;22.25;12.38;;;-3.10;99.90;;;;;;5056794;28;20072;-74
2022/02/28 07:22:24;;;;;;;22.92;12.98;;;-3.10;99.90;;;;;;5034011;28;20076;-72
2022/02/28 07:24:50;;;;;;;25.33;13.95;;;-3.00;99.90;;;;;;5049396;28;20500;-73
2022/02/28 07:27:17;;;;;;;23.60;14.05;;;-3.00;99.90;;;;;;5045393;28;20132;-73
2022/02/28 07:29:49;;;;;;;29.15;15.55;;;-2.90;99.90;;;;;;5024753;28;20055;-72
2022/02/28 07:32:20;;;;;;;27.83;16.75;;;-2.80;99.90;;;;;;5019638;28;20048;-72
2022/02/28 07:34:52;;;;;;;28.50;15.50;;;-2.80;99.90;;;;;;5035044;28;20833;-72
2022/02/28 07:37:19;;;;;;;28.27;14.35;;;-2.70;99.90;;;;;;5022681;28;20582;-73
2022/02/28 07:39:51;;;;;;;24.73;14.05;;;-2.60;99.90;;;;;;5021894;28;20041;-73
2022/02/28 07:42:23;;;;;;;27.60;15.30;;;-2.50;99.90;;;;;;5027666;28;20037;-73
2022/02/28 07:44:55;;;;;;;31.08;17.90;;;-2.40;99.90;;;;;;5039262;28;20411;-72
2022/02/28 07:47:22;;;;;;;47.88;25.85;;;-2.30;99.90;;;;;;5035154;28;20075;-72
2022/02/28 07:49:54;;;;;;;42.97;25.60;;;-2.30;99.90;;;;;;5037632;28;20049;-72
2022/02/28 07:52:26;;;;;;;33.17;17.65;;;-2.20;99.90;;;;;;5042485;28;20041;-72
2022/02/28 07:54:57;;;;;;;105.13;47.38;;;-2.10;99.90;;;;;;5051952;28;20393;-73
2022/02/28 07:57:29;;;;;;;110.93;48.80;;;-2.10;99.90;;;;;;5050652;28;20067;-73
2022/02/28 08:00:04;;;;;;;219.75;81.72;;;-2.00;99.90;;;;;;5034041;28;20183;-73
2022/02/28 08:02:37;;;;;;;200.50;81.95;;;-1.90;99.90;;;;;;5050126;28;20043;-72
2022/02/28 08:05:09;;;;;;;66.53;30.33;;;-1.80;99.90;;;;;;5037094;28;20129;-72
2022/02/28 08:07:41;;;;;;;40.65;20.40;;;-1.70;99.90;;;;;;5034296;28;20043;-73
2022/02/28 08:10:13;;;;;;;34.40;19.83;;;-1.70;99.90;;;;;;5033024;28;20049;-73
2022/02/28 08:12:45;;;;;;;57.75;28.63;;;-1.60;99.90;;;;;;5031661;28;20049;-72
2022/02/28 08:15:17;;;;;;;35.40;18.88;;;-1.50;99.90;;;;;;4999789;28;20522;-73
2022/02/28 08:17:45;;;;;;;23.50;13.02;;;-1.40;99.90;;;;;;4998809;28;20119;-73
2022/02/28 08:20:11;;;;;;;29.52;15.77;;;-1.40;99.90;;;;;;5015248;28;20690;-73
2022/02/28 08:22:38;;;;;;;22.83;13.88;;;-1.30;99.90;;;;;;5037086;28;20041;-72
2022/02/28 08:25:06;;;;;;;20.08;12.43;;;-1.20;99.90;;;;;;5014671;28;20152;-73
2022/02/28 08:27:38;;;;;;;28.23;14.77;;;-1.10;99.90;;;;;;5046456;28;20036;-73
2022/02/28 08:30:19;;;;;;;22.40;13.50;;;-1.00;99.90;;;;;;5052508;28;20123;-73
2022/02/28 08:32:56;;;;;;;28.98;15.63;;;-0.90;99.90;;;;;;5042483;28;20036;-73
2022/02/28 08:35:28;;;;;;;23.17;14.00;;;-0.80;99.90;;;;;;5019990;28;20045;-72
2022/02/28 08:38:01;;;;;;;21.58;12.82;;;-0.70;99.90;;;;;;5052818;28;20493;-72
2022/02/28 08:40:29;;;;;;;28.40;15.27;;;-0.60;99.90;;;;;;5034928;28;20076;-73
2022/02/28 08:43:01;;;;;;;27.33;14.80;;;-0.50;99.90;;;;;;5051091;28;20057;-73
2022/02/28 08:45:30;;;;;;;31.85;15.85;;;-0.40;99.90;;;;;;5049903;28;20128;-72
2022/02/28 08:48:06;;;;;;;26.00;14.82;;;-0.30;99.90;;;;;;5047628;28;20037;-72
2022/02/28 08:50:37;;;;;;;29.83;14.13;;;-0.20;99.90;;;;;;5044361;28;20072;-72
2022/02/28 08:53:05;;;;;;;28.40;14.65;;;-0.10;99.90;;;;;;5051466;28;20045;-74
2022/02/28 08:55:37;;;;;;;29.15;17.08;;;0.00;99.90;;;;;;5047949;28;20037;-73
2022/02/28 08:58:04;;;;;;;30.13;15.52;;;0.10;99.90;;;;;;5029062;28;20682;-73
2022/02/28 09:00:36;;;;;;;29.15;13.80;;;0.40;99.90;;;;;;5040712;28;20045;-72
2022/02/28 09:03:08;;;;;;;19.92;11.85;;;0.60;99.90;;;;;;5051048;28;20061;-73
2022/02/28 09:05:39;;;;;;;29.85;15.35;;;0.80;99.90;;;;;;5034794;28;20043;-72
2022/02/28 09:08:11;;;;;;;26.02;13.95;;;0.80;99.90;;;;;;5034827;28;20060;-72
2022/02/28 09:10:43;;;;;;;23.55;13.20;;;0.90;99.90;;;;;;5034387;28;20582;-72
2022/02/28 09:13:10;;;;;;;23.60;12.48;;;0.90;99.90;;;;;;5035358;28;20037;-72
2022/02/28 09:15:37;;;;;;;26.35;13.32;;;1.00;99.90;;;;;;5034008;28;20079;-73
2022/02/28 09:18:12;;;;;;;24.15;13.68;;;1.10;99.90;;;;;;5033869;28;20051;-73
2022/02/28 09:20:44;;;;;;;23.37;13.77;;;1.20;99.90;;;;;;5051615;28;20033;-72
2022/02/28 09:23:11;;;;;;;24.05;14.57;;;1.30;99.90;;;;;;5051174;28;20311;-72
2022/02/28 09:25:40;;;;;;;21.98;12.93;;;1.30;99.90;;;;;;5017741;28;20099;-71
2022/02/28 09:28:07;;;;;;;20.90;13.38;;;1.50;99.90;;;;;;5017516;28;20041;-73
2022/02/28 09:30:34;;;;;;;18.55;11.65;;;1.60;99.90;;;;;;5034240;28;20555;-73
2022/02/28 09:33:06;;;;;;;20.02;12.27;;;1.70;99.90;;;;;;5051045;28;20128;-73
2022/02/28 09:35:37;;;;;;;16.55;11.85;;;1.80;99.90;;;;;;5027755;28;20037;-73
2022/02/28 09:38:15;;;;;;;26.75;12.98;;;1.90;99.90;;;;;;5047701;28;20060;-73
2022/02/28 09:40:49;;;;;;;19.50;11.95;;;2.00;99.90;;;;;;5039317;28;20705;-73
2022/02/28 09:43:46;;;;;;;19.20;11.07;;;2.10;99.90;;;;;;5046684;28;20608;-73
2022/02/28 09:46:45;;;;;;;21.45;12.75;;;2.30;99.90;;;;;;5048958;28;20120;-73
2022/02/28 09:49:36;;;;;;;28.17;11.95;;;2.30;99.90;;;;;;5044768;28;20056;-73
2022/02/28 09:52:26;;;;;;;17.02;10.23;;;2.40;99.90;;;;;;5052080;28;20047;-72
2022/02/28 09:55:26;;;;;;;16.65;10.98;;;2.50;99.90;;;;;;5045499;28;20486;-73
2022/02/28 09:58:13;;;;;;;20.65;11.45;;;2.70;99.90;;;;;;5025539;28;20519;-72
2022/02/28 10:00:51;;;;;;;22.67;11.60;;;2.80;99.90;;;;;;5037724;28;20124;-73
2022/02/28 10:03:19;;;;;;;16.63;10.43;;;2.80;99.90;;;;;;5047491;28;20086;-73
2022/02/28 10:05:46;;;;;;;15.40;10.13;;;3.00;99.90;;;;;;5049203;28;20060;-73
2022/02/28 10:08:19;;;;;;;16.50;10.15;;;3.10;99.90;;;;;;5049975;28;20061;-72
2022/02/28 10:10:51;;;;;;;16.08;9.75;;;3.20;99.90;;;;;;5049590;28;20065;-73
2022/02/28 10:13:31;;;;;;;18.70;11.25;;;3.30;99.90;;;;;;5038120;28;20047;-73
2022/02/28 10:16:03;;;;;;;18.95;11.30;;;3.40;99.90;;;;;;5034063;28;20124;-73
2022/02/28 10:18:30;;;;;;;15.23;10.02;;;3.50;99.90;;;;;;5049432;28;20082;-72
2022/02/28 10:21:02;;;;;;;16.20;9.70;;;3.70;99.90;;;;;;5033603;28;20045;-72
2022/02/28 10:23:34;;;;;;;12.65;8.95;;;3.90;99.90;;;;;;5047560;28;20060;-73
2022/02/28 10:26:24;;;;;;;17.73;9.40;;;4.10;99.90;;;;;;5044663;28;20588;-73
2022/02/28 10:29:17;;;;;;;11.98;8.00;;;4.30;99.90;;;;;;5050656;28;20060;-73
2022/02/28 10:32:06;;;;;;;15.45;9.82;;;4.40;99.90;;;;;;5047962;28;20056;-73
2022/02/28 10:38:03;;;;;;;15.05;8.80;;;4.60;99.90;;;;;;5040786;28;20048;-73
2022/02/28 10:40:33;;;;;;;15.98;8.98;;;4.70;99.90;;;;;;5053855;28;20076;-72
2022/02/28 10:43:00;;;;;;;13.95;8.90;;;4.70;99.90;;;;;;5053506;28;20064;-73
2022/02/28 10:45:34;;;;;;;13.80;8.95;;;4.80;99.90;;;;;;5043059;28;20637;-73
2022/02/28 10:48:01;;;;;;;14.20;8.98;;;4.90;99.90;;;;;;5035107;28;20127;-73
2022/02/28 10:50:38;;;;;;;13.27;9.25;;;4.90;99.90;;;;;;5054667;28;20411;-73
2022/02/28 10:53:15;;;;;;;13.88;10.18;;;5.00;99.90;;;;;;5039730;28;20068;-73
2022/02/28 10:55:50;;;;;;;12.85;8.23;;;5.10;99.90;;;;;;5039689;28;20106;-72
2022/02/28 10:58:25;;;;;;;10.45;8.13;;;5.20;98.40;;;;;;5043126;28;20116;-73
2022/02/28 11:00:59;;;;;;;18.67;10.18;;;5.30;98.10;;;;;;5045775;28;20442;-72
2022/02/28 11:03:42;;;;;;;15.45;9.63;;;5.30;98.10;;;;;;5036959;28;20169;-73
2022/02/28 11:06:23;;;;;;;14.88;9.43;;;5.40;97.90;;;;;;5073988;28;20029;-73
2022/02/28 11:08:51;;;;;;;13.75;8.82;;;5.50;99.00;;;;;;5047593;28;20033;-73
2022/02/28 11:11:18;;;;;;;16.27;10.40;;;5.50;98.80;;;;;;5055030;28;20048;-73
2022/02/28 11:13:50;;;;;;;18.98;10.23;;;5.60;98.60;;;;;;5051887;28;20041;-73
2022/02/28 11:16:17;;;;;;;14.73;11.13;;;5.60;97.90;;;;;;5024864;28;20053;-73
2022/02/28 11:18:45;;;;;;;17.67;8.85;;;5.60;96.50;;;;;;5035444;28;20056;-72
2022/02/28 11:21:19;;;;;;;17.20;10.68;;;5.60;95.70;;;;;;5067681;28;20041;-73
2022/02/28 11:23:51;;;;;;;17.30;10.25;;;5.60;94.50;;;;;;5053114;28;20037;-73
2022/02/28 11:26:18;;;;;;;12.63;9.85;;;5.70;94.70;;;;;;5069316;28;20455;-72
2022/02/28 11:28:45;;;;;;;12.73;9.60;;;5.70;94.70;;;;;;5035739;28;20079;-73
2022/02/28 11:31:15;;;;;;;15.68;9.43;;;5.80;95.00;;;;;;5050124;28;20065;-73
2022/02/28 11:34:06;;;;;;;16.33;10.13;;;5.80;94.50;;;;;;5038906;28;20056;-73
2022/02/28 11:37:00;;;;;;;15.88;10.23;;;5.90;93.40;;;;;;5045746;28;20041;-73
2022/02/28 11:39:34;;;;;;;12.38;8.70;;;5.90;94.10;;;;;;5053721;28;20037;-72
2022/02/28 11:42:08;;;;;;;14.50;8.55;;;6.00;92.50;;;;;;5052866;28;20140;-73
2022/02/28 11:44:37;;;;;;;15.55;9.43;;;6.10;92.00;;;;;;5035043;28;20476;-73
2022/02/28 11:47:13;;;;;;;16.05;9.30;;;6.10;92.30;;;;;;5019562;28;20041;-73
2022/02/28 11:49:46;;;;;;;15.07;9.77;;;6.10;92.50;;;;;;5017513;28;20045;-73
2022/02/28 11:52:34;;;;;;;15.65;9.60;;;6.20;91.70;;;;;;5051194;28;20152;-72
2022/02/28 11:55:09;;;;;;;15.77;9.93;;;6.30;91.20;;;;;;5055316;28;20091;-73
2022/02/28 11:57:48;;;;;;;13.63;9.40;;;6.30;91.10;;;;;;5047833;28;20561;-73
2022/02/28 12:00:38;;;;;;;13.95;9.38;;;6.30;91.20;;;;;;5011362;28;20099;-73
2022/02/28 12:03:31;;;;;;;13.20;8.98;;;6.40;91.80;;;;;;5027412;28;20744;-73
2022/02/28 12:05:58;;;;;;;16.92;12.00;;;6.50;90.60;;;;;;5027053;28;20132;-73
2022/02/28 12:08:38;;;;;;;20.80;11.13;;;6.50;91.50;;;;;;5052790;28;20120;-73
2022/02/28 12:11:18;;;;;;;32.17;19.58;;;6.50;90.80;;;;;;5052836;28;20037;-73
2022/02/28 12:14:04;;;;;;;15.60;11.05;;;6.60;90.20;;;;;;5011834;28;20075;-73
2022/02/28 12:19:30;;;;;;;15.65;11.27;;;6.80;91.20;;;;;;5043958;28;20405;-72
2022/02/28 12:22:05;;;;;;;17.65;10.93;;;6.90;88.40;;;;;;5050583;28;20403;-72
2022/02/28 12:24:56;;;;;;;19.10;11.60;;;7.00;87.80;;;;;;5053595;28;20090;-72
2022/02/28 12:27:32;;;;;;;15.30;10.82;;;7.10;86.20;;;;;;5037396;28;20043;-73
2022/02/28 12:29:59;;;;;;;17.17;11.57;;;7.10;84.90;;;;;;5039519;28;20132;-72
2022/02/28 12:32:55;;;;;;;16.63;9.57;;;7.10;83.50;;;;;;5032239;28;20055;-72
2022/02/28 12:35:52;;;;;;;19.05;11.80;;;7.10;85.40;;;;;;5039060;28;20084;-73
2022/02/28 12:38:23;;;;;;;15.70;11.88;;;7.10;86.90;;;;;;5066659;28;20569;-72
2022/02/28 12:40:53;;;;;;;19.17;12.35;;;7.20;86.60;;;;;;5051364;28;20136;-72
2022/02/28 12:43:27;;;;;;;15.70;10.73;;;7.20;85.40;;;;;;5048469;28;20045;-72
2022/02/28 12:45:56;;;;;;;15.05;9.63;;;7.30;85.20;;;;;;5067050;28;20091;-72
2022/02/28 12:48:29;;;;;;;15.50;10.68;;;7.40;82.80;;;;;;5046749;28;20124;-72
2022/02/28 12:51:04;;;;;;;16.02;9.77;;;7.40;83.60;;;;;;5032865;28;20045;-72
2022/02/28 12:53:39;;;;;;;24.55;19.83;;;7.50;83.90;;;;;;5050295;28;20086;-72
2022/02/28 12:56:09;;;;;;;18.80;11.68;;;7.50;84.00;;;;;;5022631;28;20045;-72
2022/02/28 12:58:46;;;;;;;16.10;11.05;;;7.60;86.40;;;;;;5057288;28;20096;-72
2022/02/28 13:01:26;;;;;;;15.20;10.18;;;7.60;84.00;;;;;;5068630;28;20488;-72
2022/02/28 13:04:01;;;;;;;12.90;10.23;;;7.70;86.80;;;;;;5041323;28;20045;-72
2022/02/28 13:06:31;;;;;;;15.63;10.75;;;7.80;83.30;;;;;;5044971;28;20052;-72